San Diego, California
Traffic Map
Current Weather Conditions
San Diego, California
Broken Clouds
Broken Clouds
63°
Feels Like: 63°
Wind Chill: 63° Ceiling: 4000
Heat Index: 63° Visibility: 10mi
Dew Point: 55° Wind: 5mph
Humidity: 75% Direction: 290° (WNW)
Pressure: 30.03in Gusts: 0mph
Raw Report DataKSAN 210451Z 29004KT 10SM FEW023 BKN040 BKN050 17/13 A3003 RMK AO2 SLP168 T01720128
Traffic Incident Summary
Active as of:
Severity:
Category:
InformationThere was an issue retrieving the traffic information for this location. Please try a different location or try again shortly.
Advertisements
Track Severe Weather on mobile